createdAt,value
2022-12-18T00:00:54.516Z,94.91
2022-12-18T00:02:56.928Z,87.44
2022-12-18T00:04:58.598Z,87.11
2022-12-18T00:07:01.544Z,90.36
2022-12-18T00:09:04.328Z,90.11
2022-12-18T00:11:07.018Z,91.21
2022-12-18T00:13:10.173Z,91.75
2022-12-18T00:15:12.071Z,92.76
2022-12-18T00:17:13.670Z,94.28
2022-12-18T00:19:15.913Z,95.35
2022-12-18T00:21:17.851Z,95.44
2022-12-18T00:23:20.742Z,96.54
2022-12-18T00:25:22.379Z,95.70
2022-12-18T00:27:23.927Z,97.51
2022-12-18T00:29:25.558Z,92.75
2022-12-18T00:31:27.272Z,95.52
2022-12-18T00:33:29.207Z,95.27
2022-12-18T00:35:30.717Z,97.17
2022-12-18T00:37:33.885Z,95.03
2022-12-18T00:39:36.969Z,93.26
2022-12-18T00:41:38.704Z,95.26
2022-12-18T00:43:41.139Z,95.45
2022-12-18T00:45:42.842Z,96.54
2022-12-18T00:47:44.475Z,97.92
2022-12-18T00:49:46.016Z,92.77
2022-12-18T00:51:48.228Z,95.33
2022-12-18T00:53:49.884Z,94.38
2022-12-18T00:55:52.842Z,96.10
2022-12-18T00:57:54.446Z,93.21
2022-12-18T00:59:56.076Z,95.35
2022-12-18T01:01:57.745Z,93.18
2022-12-18T01:04:00.810Z,92.21
2022-12-18T01:06:07.333Z,93.80
2022-12-18T01:08:08.996Z,96.18
2022-12-18T01:10:12.315Z,96.43
2022-12-18T01:12:15.409Z,96.64
2022-12-18T01:14:17.014Z,97.37
2022-12-18T01:16:18.932Z,97.23
2022-12-18T01:18:20.514Z,95.12
2022-12-18T01:20:22.059Z,95.26
2022-12-18T01:22:23.767Z,95.25
2022-12-18T01:24:25.403Z,96.34
2022-12-18T01:26:27.823Z,95.10
2022-12-18T01:28:30.764Z,97.99
2022-12-18T01:30:32.312Z,96.35
2022-12-18T01:32:34.073Z,95.88
2022-12-18T01:34:36.329Z,95.69
2022-12-18T01:36:39.479Z,96.21
2022-12-18T01:38:44.074Z,94.04
2022-12-18T01:40:45.602Z,94.88
2022-12-18T01:42:53.753Z,94.49
2022-12-18T01:44:58.639Z,92.34
2022-12-18T01:47:00.535Z,91.18
2022-12-18T01:49:02.562Z,91.92
2022-12-18T01:51:05.626Z,94.39
2022-12-18T01:53:13.729Z,92.34
2022-12-18T01:55:19.299Z,92.39
2022-12-18T01:57:21.168Z,91.07
2022-12-18T01:59:22.691Z,90.62
2022-12-18T02:01:26.942Z,87.63
2022-12-18T02:03:28.599Z,88.19
2022-12-18T02:05:41.084Z,87.67
2022-12-18T02:07:52.000Z,88.54
2022-12-18T02:09:59.962Z,89.39
2022-12-18T02:12:06.709Z,90.31
2022-12-18T02:14:19.031Z,89.39
2022-12-18T02:16:31.139Z,89.73
2022-12-18T02:18:38.155Z,91.22
2022-12-18T02:20:46.094Z,92.61
2022-12-18T02:23:05.420Z,92.50
2022-12-18T02:25:19.647Z,93.81
2022-12-18T02:27:22.768Z,94.14
2022-12-18T02:29:27.000Z,91.81
2022-12-18T02:31:32.316Z,93.69
2022-12-18T02:33:36.567Z,91.46
2022-12-18T02:35:41.017Z,89.85
2022-12-18T02:37:44.839Z,90.20
2022-12-18T02:39:49.643Z,90.57
2022-12-18T02:41:51.695Z,90.48
2022-12-18T02:43:57.407Z,92.20
2022-12-18T02:46:00.664Z,90.57
2022-12-18T02:48:02.348Z,92.28
2022-12-18T02:50:10.877Z,90.65
2022-12-18T02:52:25.723Z,87.94
2022-12-18T02:54:56.363Z,89.17
2022-12-18T02:57:05.380Z,89.15
2022-12-18T02:59:14.291Z,93.00
2022-12-18T03:01:20.702Z,93.08
2022-12-18T03:03:27.971Z,91.54
2022-12-18T03:05:34.331Z,92.01
2022-12-18T03:07:39.890Z,93.74
2022-12-18T03:09:47.282Z,92.20
2022-12-18T03:11:55.573Z,90.21
2022-12-18T03:13:59.409Z,88.66
2022-12-18T03:16:04.311Z,90.94
2022-12-18T03:18:11.715Z,93.42
2022-12-18T03:20:20.930Z,92.75
2022-12-18T03:22:24.831Z,91.68
2022-12-18T03:24:28.814Z,90.06
2022-12-18T03:26:31.018Z,91.39
2022-12-18T03:28:37.830Z,88.60
2022-12-18T03:30:42.580Z,88.88
2022-12-18T03:32:51.488Z,91.08
2022-12-18T03:34:56.822Z,90.96
2022-12-18T03:37:03.668Z,90.08
2022-12-18T03:39:05.377Z,92.38
2022-12-18T03:41:15.684Z,94.42
2022-12-18T03:43:26.488Z,93.13
2022-12-18T03:45:35.197Z,97.49
2022-12-18T03:47:48.738Z,93.98
2022-12-18T03:49:58.871Z,96.02
2022-12-18T03:52:05.611Z,96.73
2022-12-18T03:54:09.594Z,94.16
2022-12-18T03:56:14.392Z,92.28
2022-12-18T03:58:20.245Z,93.39
2022-12-18T04:00:21.976Z,92.91
2022-12-18T04:02:25.408Z,88.73
2022-12-18T04:04:29.348Z,89.70
2022-12-18T04:06:32.950Z,91.23
2022-12-18T04:08:35.420Z,92.21
2022-12-18T04:10:37.395Z,92.38
2022-12-18T04:12:39.114Z,92.56
2022-12-18T04:14:40.874Z,92.56
2022-12-18T04:16:42.373Z,97.77
2022-12-18T04:18:43.896Z,95.05
2022-12-18T04:20:45.498Z,93.19
2022-12-18T04:22:49.081Z,93.77
2022-12-18T04:24:50.616Z,93.06
2022-12-18T04:26:52.221Z,95.07
2022-12-18T04:28:53.877Z,94.03
2022-12-18T04:30:55.502Z,97.45
2022-12-18T04:32:57.203Z,98.18
2022-12-18T04:34:58.725Z,99.18
2022-12-18T04:37:00.300Z,96.18
2022-12-18T04:39:03.407Z,97.01
2022-12-18T04:41:05.144Z,94.37
2022-12-18T04:43:06.749Z,94.50
2022-12-18T04:45:09.333Z,94.37
2022-12-18T04:47:10.884Z,92.79
2022-12-18T04:49:12.415Z,93.71
2022-12-18T04:51:14.258Z,95.05
2022-12-18T04:53:15.561Z,96.21
2022-12-18T04:55:18.582Z,95.45
2022-12-18T04:57:20.101Z,91.89
2022-12-18T04:59:21.690Z,94.46
2022-12-18T05:01:23.343Z,93.67
2022-12-18T05:03:25.087Z,94.88
2022-12-18T05:05:26.812Z,90.89
2022-12-18T05:07:28.387Z,92.02
2022-12-18T05:09:30.514Z,93.74
2022-12-18T05:11:33.555Z,95.12
2022-12-18T05:13:36.460Z,94.09
2022-12-18T05:15:38.272Z,96.42
2022-12-18T05:17:39.841Z,92.30
2022-12-18T05:19:41.525Z,92.18
2022-12-18T05:21:43.092Z,93.72
2022-12-18T05:23:44.934Z,95.91
2022-12-18T05:25:48.756Z,93.69
2022-12-18T05:27:51.799Z,94.67
2022-12-18T05:29:53.332Z,91.28
2022-12-18T05:31:54.926Z,93.71
2022-12-18T05:33:56.527Z,92.42
2022-12-18T05:35:59.923Z,95.29
2022-12-18T05:38:01.556Z,93.41
2022-12-18T05:40:03.534Z,94.26
2022-12-18T05:42:05.124Z,94.66
2022-12-18T05:44:08.013Z,92.20
2022-12-18T05:46:13.784Z,92.15
2022-12-18T05:48:15.586Z,91.35
2022-12-18T05:50:22.998Z,92.53
2022-12-18T05:52:24.816Z,92.45
2022-12-18T05:54:27.820Z,92.53
2022-12-18T05:56:29.455Z,95.92
2022-12-18T05:58:31.925Z,94.42
2022-12-18T06:00:36.943Z,90.30
2022-12-18T06:02:38.602Z,90.42
2022-12-18T06:04:40.165Z,91.48
2022-12-18T06:06:41.740Z,93.67
2022-12-18T06:08:46.380Z,90.43
2022-12-18T06:10:51.812Z,93.43
2022-12-18T06:12:53.333Z,91.74
2022-12-18T06:14:54.868Z,93.02
2022-12-18T06:16:57.775Z,94.55
2022-12-18T06:19:00.271Z,91.04
2022-12-18T06:21:02.123Z,93.19
2022-12-18T06:23:04.385Z,90.55
2022-12-18T06:25:07.090Z,92.92
2022-12-18T06:27:09.526Z,93.16
2022-12-18T06:29:11.071Z,94.31
2022-12-18T06:31:12.869Z,91.32
2022-12-18T06:33:15.872Z,94.23
2022-12-18T06:35:17.780Z,93.66
2022-12-18T06:37:19.948Z,94.35
2022-12-18T06:39:21.527Z,95.09
2022-12-18T06:41:23.088Z,95.86
2022-12-18T06:43:24.774Z,99.08
2022-12-18T06:45:26.523Z,99.26
2022-12-18T06:47:31.794Z,99.28
2022-12-18T06:49:34.728Z,99.17
2022-12-18T06:51:36.735Z,98.48
2022-12-18T06:53:38.734Z,96.26
2022-12-18T06:55:40.535Z,96.99
2022-12-18T06:57:43.114Z,97.84
2022-12-18T06:59:44.638Z,97.51
2022-12-18T07:01:46.329Z,97.55
2022-12-18T07:03:52.028Z,97.37
2022-12-18T07:05:54.991Z,98.65
2022-12-18T07:07:56.650Z,98.03
2022-12-18T07:09:58.143Z,97.20
2022-12-18T07:11:59.837Z,96.45
2022-12-18T07:14:01.375Z,96.67
2022-12-18T07:16:17.117Z,96.78
2022-12-18T07:18:20.267Z,94.65
2022-12-18T07:20:21.767Z,92.97
2022-12-18T07:22:26.071Z,91.67
2022-12-18T07:24:27.706Z,93.11
2022-12-18T07:26:29.227Z,95.91
2022-12-18T07:28:30.889Z,97.72
2022-12-18T07:30:32.487Z,97.34
2022-12-18T07:32:33.950Z,98.42
2022-12-18T07:34:35.713Z,97.59
2022-12-18T07:36:37.540Z,100.00
2022-12-18T07:38:40.781Z,99.22
2022-12-18T07:40:42.274Z,100.00
2022-12-18T07:42:43.863Z,100.00
2022-12-18T07:44:45.379Z,100.00
2022-12-18T07:46:46.902Z,100.00
2022-12-18T07:48:49.273Z,100.00
2022-12-18T07:50:51.774Z,100.00
2022-12-18T07:52:53.293Z,99.84
2022-12-18T07:54:56.175Z,98.66
2022-12-18T07:56:57.676Z,97.23
2022-12-18T07:59:00.110Z,96.89
2022-12-18T08:01:06.236Z,100.00
2022-12-18T08:03:07.929Z,99.45
2022-12-18T08:05:09.921Z,100.00
2022-12-18T08:07:11.425Z,100.00
2022-12-18T08:09:13.068Z,100.00
2022-12-18T08:11:15.960Z,100.00
2022-12-18T08:13:17.783Z,100.00
2022-12-18T08:15:19.119Z,98.74
2022-12-18T08:17:21.067Z,100.00
2022-12-18T08:19:22.667Z,100.00
2022-12-18T08:21:26.407Z,96.35
2022-12-18T08:23:39.299Z,94.67
2022-12-18T08:25:43.858Z,98.86
2022-12-18T08:27:46.737Z,94.64
2022-12-18T08:29:48.239Z,94.17
2022-12-18T08:31:49.875Z,95.73
2022-12-18T08:33:52.576Z,95.20
2022-12-18T08:35:54.107Z,96.67
2022-12-18T08:37:55.657Z,99.78
2022-12-18T08:39:57.301Z,100.00
2022-12-18T08:41:58.969Z,100.00
2022-12-18T08:44:02.181Z,100.00
2022-12-18T08:46:03.900Z,99.36
2022-12-18T08:48:05.974Z,98.32
2022-12-18T08:50:08.083Z,95.73
2022-12-18T08:52:09.626Z,94.75
2022-12-18T08:54:12.921Z,90.64
2022-12-18T08:56:15.433Z,93.22
2022-12-18T08:58:17.005Z,93.14
2022-12-18T09:00:20.165Z,93.76
2022-12-18T09:02:21.912Z,93.91
2022-12-18T09:04:23.521Z,95.75
2022-12-18T09:06:25.152Z,94.53
2022-12-18T09:08:26.687Z,95.84
2022-12-18T09:10:28.434Z,94.46
2022-12-18T09:12:30.224Z,96.62
2022-12-18T09:14:32.045Z,93.10
2022-12-18T09:16:35.413Z,96.68
2022-12-18T09:18:37.304Z,94.55
2022-12-18T09:20:39.759Z,92.45
2022-12-18T09:22:41.640Z,94.02
2022-12-18T09:24:43.201Z,93.77
2022-12-18T09:26:47.411Z,94.47
2022-12-18T09:28:49.410Z,97.14
2022-12-18T09:30:50.893Z,93.57
2022-12-18T09:32:54.317Z,96.70
2022-12-18T09:34:55.929Z,91.93
2022-12-18T09:36:57.790Z,95.95
2022-12-18T09:39:01.665Z,97.57
2022-12-18T09:41:26.770Z,98.55
2022-12-18T09:43:34.210Z,96.52
2022-12-18T09:45:41.776Z,95.56
2022-12-18T09:47:53.451Z,95.77
2022-12-18T09:50:02.026Z,94.20
2022-12-18T09:52:09.594Z,100.00
2022-12-18T09:54:18.555Z,98.36
2022-12-18T09:56:22.268Z,95.45
2022-12-18T09:58:30.488Z,93.77
2022-12-18T10:00:32.100Z,95.15
2022-12-18T10:02:33.827Z,93.89
2022-12-18T10:04:35.645Z,98.18
2022-12-18T10:06:45.702Z,98.55
2022-12-18T10:08:55.282Z,99.52
2022-12-18T10:11:02.137Z,97.04
2022-12-18T10:13:12.973Z,96.50
2022-12-18T10:15:21.345Z,100.00
2022-12-18T10:17:36.403Z,100.00
2022-12-18T10:19:42.102Z,100.00
2022-12-18T10:21:52.278Z,96.49
2022-12-18T10:24:05.017Z,97.00
2022-12-18T10:26:08.185Z,93.30
2022-12-18T10:28:13.645Z,92.00
2022-12-18T10:30:23.465Z,96.50
2022-12-18T10:32:27.240Z,97.55
2022-12-18T10:34:28.817Z,91.85
2022-12-18T10:36:31.850Z,94.44
2022-12-18T10:38:35.504Z,97.64
2022-12-18T10:40:51.280Z,96.17
2022-12-18T10:43:05.347Z,95.62
2022-12-18T10:45:15.237Z,98.41
2022-12-18T10:47:20.003Z,96.86
2022-12-18T10:49:27.532Z,100.00
2022-12-18T10:51:33.750Z,100.00
2022-12-18T10:53:37.932Z,100.00
2022-12-18T10:55:45.354Z,100.00
2022-12-18T10:57:46.925Z,100.00
2022-12-18T10:59:53.386Z,100.00
2022-12-18T11:01:56.822Z,100.00
2022-12-18T11:04:08.523Z,99.34
2022-12-18T11:06:12.857Z,96.20
2022-12-18T11:08:22.215Z,99.11
2022-12-18T11:10:30.830Z,99.42
2022-12-18T11:12:32.375Z,100.00
2022-12-18T11:14:46.724Z,100.00
2022-12-18T11:17:24.200Z,100.00
2022-12-18T11:19:22.373Z,100.00
2022-12-18T11:21:24.474Z,98.61
2022-12-18T11:23:27.441Z,100.00
2022-12-18T11:25:34.654Z,100.00
2022-12-18T11:27:38.649Z,98.59
2022-12-18T11:29:46.417Z,99.74
2022-12-18T11:31:48.349Z,98.73
2022-12-18T11:34:26.822Z,98.65
2022-12-18T11:36:16.566Z,98.70
2022-12-18T11:38:23.402Z,97.65
2022-12-18T11:40:31.041Z,100.00
2022-12-18T11:42:39.383Z,99.57
2022-12-18T11:44:49.150Z,100.00
2022-12-18T11:46:56.108Z,100.00
2022-12-18T11:49:02.295Z,100.00
2022-12-18T11:51:10.389Z,100.00
2022-12-18T11:53:12.863Z,100.00
2022-12-18T11:55:16.475Z,100.00
2022-12-18T11:57:32.907Z,97.33
2022-12-18T11:59:44.711Z,98.95
2022-12-18T12:01:52.585Z,99.27
2022-12-18T12:04:22.159Z,100.00
2022-12-18T12:06:32.363Z,100.00
2022-12-18T12:08:50.091Z,99.88
2022-12-18T12:11:03.140Z,100.00
2022-12-18T12:13:39.413Z,97.35
2022-12-18T12:15:55.067Z,96.71
2022-12-18T12:18:11.065Z,98.62
2022-12-18T12:20:21.219Z,93.00
2022-12-18T12:22:32.407Z,95.89
2022-12-18T12:24:46.014Z,94.94
2022-12-18T12:26:56.647Z,92.36
2022-12-18T12:29:09.205Z,95.51
2022-12-18T12:31:26.920Z,94.29
2022-12-18T12:33:38.570Z,95.58
2022-12-18T12:35:48.564Z,92.51
2022-12-18T12:38:02.456Z,94.40
2022-12-18T12:40:26.836Z,92.65
2022-12-18T12:42:33.726Z,93.32
2022-12-18T12:44:44.155Z,91.11
2022-12-18T12:46:49.521Z,92.00
2022-12-18T12:48:54.685Z,87.56
2022-12-18T12:50:57.826Z,91.64
2022-12-18T12:53:01.706Z,92.34
2022-12-18T12:55:13.082Z,93.51
2022-12-18T12:57:20.512Z,92.75
2022-12-18T12:59:32.907Z,91.35
2022-12-18T13:01:42.629Z,90.68
2022-12-18T13:04:02.362Z,89.34
2022-12-18T13:06:12.346Z,91.83
2022-12-18T13:08:24.444Z,95.54
2022-12-18T13:10:33.498Z,90.91
2022-12-18T13:12:35.413Z,92.92
2022-12-18T13:14:39.355Z,89.71
2022-12-18T13:16:41.028Z,91.33
2022-12-18T13:18:52.454Z,92.80
2022-12-18T13:21:20.330Z,94.43
2022-12-18T13:23:31.821Z,93.24
2022-12-18T13:25:36.370Z,96.30
2022-12-18T13:28:05.014Z,96.68
2022-12-18T13:30:57.751Z,94.20
2022-12-18T13:34:02.101Z,92.29
2022-12-18T13:36:14.914Z,95.92
2022-12-18T13:38:22.827Z,91.33
2022-12-18T13:40:56.620Z,92.89
2022-12-18T13:42:59.044Z,95.44
2022-12-18T13:45:01.137Z,94.56
2022-12-18T13:47:04.336Z,95.44
2022-12-18T13:49:18.310Z,97.43
2022-12-18T13:51:22.429Z,95.86
2022-12-18T13:53:27.251Z,97.17
2022-12-18T13:55:29.580Z,99.15
2022-12-18T13:57:34.016Z,100.00
2022-12-18T13:59:36.850Z,100.00
2022-12-18T14:01:43.468Z,99.65
2022-12-18T14:03:45.090Z,100.00
2022-12-18T14:05:55.935Z,100.00
2022-12-18T14:08:02.644Z,96.70
2022-12-18T14:10:42.199Z,98.94
2022-12-18T14:12:28.740Z,99.43
2022-12-18T14:14:33.566Z,100.00
2022-12-18T14:16:35.967Z,99.92
2022-12-18T14:18:45.242Z,100.00
2022-12-18T14:20:52.827Z,100.00
2022-12-18T14:22:55.422Z,100.00
2022-12-18T14:25:19.113Z,100.00
2022-12-18T14:27:24.250Z,100.00
2022-12-18T14:29:27.715Z,100.00
2022-12-18T14:31:31.979Z,100.00
2022-12-18T14:33:33.722Z,100.00
2022-12-18T14:35:37.209Z,100.00
2022-12-18T14:37:39.986Z,100.00
2022-12-18T14:39:41.678Z,100.00
2022-12-18T14:41:44.574Z,100.00
2022-12-18T14:43:47.688Z,100.00
2022-12-18T14:45:49.726Z,100.00
2022-12-18T14:47:51.424Z,100.00
2022-12-18T14:49:53.045Z,100.00
2022-12-18T14:51:56.058Z,100.00
2022-12-18T14:54:00.264Z,100.00
2022-12-18T14:56:11.183Z,100.00
2022-12-18T14:58:16.262Z,100.00
2022-12-18T15:00:20.915Z,100.00
2022-12-18T15:02:25.017Z,100.00
2022-12-18T15:04:29.344Z,100.00
2022-12-18T15:06:33.865Z,100.00
2022-12-18T15:08:37.686Z,100.00
2022-12-18T15:10:48.453Z,100.00
2022-12-18T15:12:51.246Z,100.00
2022-12-18T15:14:54.282Z,100.00
2022-12-18T15:16:57.287Z,100.00
2022-12-18T15:18:58.870Z,100.00
2022-12-18T15:21:09.294Z,100.00
2022-12-18T15:23:15.782Z,100.00
2022-12-18T15:25:30.274Z,100.00
2022-12-18T15:27:33.764Z,100.00
2022-12-18T15:29:35.341Z,100.00
2022-12-18T15:31:38.230Z,100.00
2022-12-18T15:33:41.956Z,100.00
2022-12-18T15:35:47.181Z,100.00
2022-12-18T15:37:49.597Z,100.00
2022-12-18T15:39:51.067Z,100.00
2022-12-18T15:41:52.888Z,100.00
2022-12-18T15:43:54.624Z,100.00
2022-12-18T15:45:56.251Z,100.00
2022-12-18T15:47:59.608Z,100.00
2022-12-18T15:50:01.255Z,100.00
2022-12-18T15:52:03.362Z,100.00
2022-12-18T15:54:09.880Z,100.00
2022-12-18T15:56:12.159Z,100.00
2022-12-18T15:58:14.480Z,100.00
2022-12-18T16:00:18.335Z,100.00
2022-12-18T16:02:21.012Z,100.00
2022-12-18T16:04:24.035Z,100.00
2022-12-18T16:06:25.606Z,100.00
2022-12-18T16:08:27.166Z,100.00
2022-12-18T16:10:29.251Z,100.00
2022-12-18T16:12:31.003Z,100.00
2022-12-18T16:14:33.401Z,100.00
2022-12-18T16:16:35.157Z,100.00
2022-12-18T16:18:36.723Z,100.00
2022-12-18T16:20:40.176Z,100.00
2022-12-18T16:22:42.593Z,100.00
2022-12-18T16:24:44.254Z,100.00
2022-12-18T16:26:46.243Z,100.00
2022-12-18T16:28:48.653Z,100.00
2022-12-18T16:30:50.323Z,100.00
2022-12-18T16:32:51.999Z,100.00
2022-12-18T16:34:53.566Z,100.00
2022-12-18T16:37:03.339Z,100.00
2022-12-18T16:39:07.027Z,100.00
2022-12-18T16:41:18.890Z,99.86
2022-12-18T16:43:20.509Z,100.00
2022-12-18T16:45:23.420Z,100.00
2022-12-18T16:47:24.981Z,100.00
2022-12-18T16:49:26.526Z,100.00
2022-12-18T16:51:28.655Z,100.00
2022-12-18T16:53:32.722Z,100.00
2022-12-18T16:55:34.846Z,100.00
2022-12-18T16:57:36.483Z,100.00
2022-12-18T16:59:38.060Z,100.00
2022-12-18T17:01:39.963Z,99.25
2022-12-18T17:03:41.921Z,99.19
2022-12-18T17:05:51.507Z,97.81
2022-12-18T17:07:54.641Z,99.36
2022-12-18T17:09:57.607Z,99.69
2022-12-18T17:12:02.339Z,99.28
2022-12-18T17:14:07.065Z,98.65
2022-12-18T17:16:09.764Z,98.42
2022-12-18T17:18:11.479Z,99.21
2022-12-18T17:20:13.166Z,97.57
2022-12-18T17:22:14.751Z,97.41
2022-12-18T17:24:16.655Z,99.98
2022-12-18T17:26:20.524Z,100.00
2022-12-18T17:28:22.104Z,99.18
2022-12-18T17:30:23.643Z,97.40
2022-12-18T17:32:25.191Z,99.21
2022-12-18T17:34:26.810Z,98.31
2022-12-18T17:36:28.376Z,98.61
2022-12-18T17:38:30.178Z,99.56
2022-12-18T17:40:33.388Z,97.75
2022-12-18T17:42:36.659Z,99.20
2022-12-18T17:44:38.274Z,98.23
2022-12-18T17:46:39.917Z,97.99
2022-12-18T17:48:41.699Z,96.31
2022-12-18T17:50:43.340Z,94.86
2022-12-18T17:52:44.895Z,97.68
2022-12-18T17:54:46.529Z,98.08
2022-12-18T17:56:48.922Z,95.42
2022-12-18T17:58:51.995Z,96.17
2022-12-18T18:00:53.855Z,98.13
2022-12-18T18:02:55.399Z,97.16
2022-12-18T18:04:57.115Z,96.28
2022-12-18T18:06:58.729Z,96.61
2022-12-18T18:09:00.327Z,96.56
2022-12-18T18:11:05.050Z,97.07
2022-12-18T18:13:17.447Z,96.83
2022-12-18T18:15:20.411Z,96.56
2022-12-18T18:17:21.969Z,96.96
2022-12-18T18:19:24.870Z,96.82
2022-12-18T18:21:26.950Z,97.88
2022-12-18T18:23:28.897Z,99.80
2022-12-18T18:25:30.579Z,98.00
2022-12-18T18:27:38.248Z,98.66
2022-12-18T18:29:40.311Z,100.00
2022-12-18T18:31:43.277Z,97.85
2022-12-18T18:33:45.039Z,96.81
2022-12-18T18:35:54.763Z,95.19
2022-12-18T18:37:56.512Z,97.00
2022-12-18T18:39:58.326Z,96.88
2022-12-18T18:41:59.932Z,95.12
2022-12-18T18:44:01.713Z,98.25
2022-12-18T18:46:05.285Z,95.83
2022-12-18T18:48:08.298Z,97.84
2022-12-18T18:50:10.212Z,97.82
2022-12-18T18:52:11.547Z,99.17
2022-12-18T18:54:13.066Z,99.79
2022-12-18T18:56:45.336Z,98.39
2022-12-18T18:58:38.404Z,98.21
2022-12-18T19:00:39.822Z,98.14
2022-12-18T19:02:41.729Z,99.02
2022-12-18T19:04:46.279Z,97.80
2022-12-18T19:06:48.568Z,99.27
2022-12-18T19:08:51.140Z,99.10
2022-12-18T19:10:57.678Z,98.30
2022-12-18T19:12:59.626Z,97.85
2022-12-18T19:15:01.356Z,98.54
2022-12-18T19:17:03.382Z,100.00
2022-12-18T19:19:06.232Z,99.53
2022-12-18T19:21:10.755Z,98.34
2022-12-18T19:23:12.300Z,100.00
2022-12-18T19:25:13.908Z,100.00
2022-12-18T19:27:15.454Z,98.75
2022-12-18T19:29:17.080Z,99.35
2022-12-18T19:31:24.443Z,99.05
2022-12-18T19:33:43.254Z,95.07
2022-12-18T19:35:45.391Z,100.00
2022-12-18T19:37:48.464Z,100.00
2022-12-18T19:39:50.279Z,100.00
2022-12-18T19:41:51.913Z,98.00
2022-12-18T19:43:53.880Z,95.98
2022-12-18T19:45:56.220Z,97.22
2022-12-18T19:48:02.624Z,96.54
2022-12-18T19:50:07.404Z,96.99
2022-12-18T19:52:09.420Z,98.86
2022-12-18T19:54:16.655Z,98.74
2022-12-18T19:56:21.611Z,100.00
2022-12-18T19:58:23.124Z,98.00
2022-12-18T20:00:26.357Z,99.96
2022-12-18T20:02:28.193Z,98.72
2022-12-18T20:04:30.070Z,98.21
2022-12-18T20:06:34.398Z,97.57
2022-12-18T20:08:36.000Z,94.84
2022-12-18T20:10:39.079Z,96.73
2022-12-18T20:12:40.693Z,95.65
2022-12-18T20:14:42.199Z,94.90
2022-12-18T20:16:44.469Z,95.99
2022-12-18T20:18:46.707Z,96.03
2022-12-18T20:20:48.655Z,96.71
2022-12-18T20:22:52.296Z,95.74
2022-12-18T20:24:53.950Z,96.08
2022-12-18T20:26:57.304Z,96.33
2022-12-18T20:28:59.767Z,100.00
2022-12-18T20:31:01.583Z,98.78
2022-12-18T20:33:03.548Z,98.08
2022-12-18T20:35:05.279Z,97.79
2022-12-18T20:37:07.140Z,98.62
2022-12-18T20:39:08.858Z,96.58
2022-12-18T20:41:15.856Z,98.21
2022-12-18T20:43:18.995Z,96.16
2022-12-18T20:45:20.648Z,96.33
2022-12-18T20:47:22.171Z,97.10
2022-12-18T20:49:25.589Z,99.18
2022-12-18T20:51:27.323Z,98.73
2022-12-18T20:53:29.037Z,98.33
2022-12-18T20:55:30.871Z,97.15
2022-12-18T20:57:32.586Z,99.94
2022-12-18T20:59:35.590Z,99.77
2022-12-18T21:01:37.421Z,96.75
2022-12-18T21:03:42.928Z,99.11
2022-12-18T21:05:44.712Z,99.29
2022-12-18T21:07:46.392Z,98.79
2022-12-18T21:09:47.972Z,98.72
2022-12-18T21:11:49.824Z,100.00
2022-12-18T21:13:51.520Z,100.00
2022-12-18T21:15:54.802Z,100.00
2022-12-18T21:17:56.476Z,99.82
2022-12-18T21:19:58.224Z,97.72
2022-12-18T21:21:59.889Z,97.29
2022-12-18T21:24:01.730Z,97.98
2022-12-18T21:26:15.966Z,97.44
2022-12-18T21:28:17.556Z,99.60
2022-12-18T21:30:19.130Z,99.89
2022-12-18T21:32:22.421Z,97.64
2022-12-18T21:34:28.793Z,98.67
2022-12-18T21:36:31.502Z,100.00
2022-12-18T21:38:33.477Z,100.00
2022-12-18T21:40:34.912Z,99.34
2022-12-18T21:42:38.219Z,98.70
2022-12-18T21:44:41.980Z,96.54
2022-12-18T21:46:48.987Z,97.38
2022-12-18T21:48:56.142Z,97.98
2022-12-18T21:50:57.809Z,96.35
2022-12-18T21:52:59.648Z,97.55
2022-12-18T21:55:07.946Z,95.63
2022-12-18T21:57:10.775Z,97.28
2022-12-18T21:59:13.009Z,96.28
2022-12-18T22:01:15.156Z,97.40
2022-12-18T22:03:19.245Z,94.31
2022-12-18T22:05:22.417Z,94.76
2022-12-18T22:07:23.925Z,94.57
2022-12-18T22:09:27.485Z,92.19
2022-12-18T22:11:29.156Z,93.13
2022-12-18T22:13:30.793Z,93.33
2022-12-18T22:15:32.868Z,92.58
2022-12-18T22:17:34.589Z,93.04
2022-12-18T22:19:42.511Z,94.78
2022-12-18T22:21:47.541Z,93.55
2022-12-18T22:23:52.679Z,93.62
2022-12-18T22:25:54.456Z,95.52
2022-12-18T22:27:56.068Z,93.88
2022-12-18T22:29:57.638Z,94.23
2022-12-18T22:31:59.310Z,94.19
2022-12-18T22:34:01.023Z,95.34
2022-12-18T22:36:05.601Z,95.82
2022-12-18T22:38:09.190Z,95.05
2022-12-18T22:40:23.721Z,94.92
2022-12-18T22:42:25.695Z,94.81
2022-12-18T22:44:27.263Z,97.12
2022-12-18T22:46:32.663Z,97.05
2022-12-18T22:48:34.233Z,98.27
2022-12-18T22:50:35.795Z,96.66
2022-12-18T22:52:37.385Z,98.14
2022-12-18T22:54:40.302Z,97.47
2022-12-18T22:56:42.594Z,99.64
2022-12-18T22:58:46.998Z,98.75
2022-12-18T23:00:48.533Z,98.59
2022-12-18T23:02:54.436Z,97.43
2022-12-18T23:04:59.362Z,99.20
2022-12-18T23:07:00.925Z,97.61
2022-12-18T23:09:02.431Z,97.54
2022-12-18T23:11:05.748Z,95.64
2022-12-18T23:13:07.413Z,98.84
2022-12-18T23:15:09.660Z,96.11
2022-12-18T23:17:11.274Z,96.96
2022-12-18T23:19:12.824Z,94.00
2022-12-18T23:21:17.550Z,94.30
2022-12-18T23:23:20.142Z,94.78
2022-12-18T23:25:21.882Z,96.15
2022-12-18T23:27:24.845Z,97.36
2022-12-18T23:29:26.712Z,97.03
2022-12-18T23:31:30.294Z,97.23
2022-12-18T23:33:31.947Z,96.18
2022-12-18T23:35:34.437Z,97.11
2022-12-18T23:37:58.693Z,95.74
2022-12-18T23:39:57.505Z,95.10
2022-12-18T23:41:59.089Z,95.19
2022-12-18T23:44:01.976Z,94.32
2022-12-18T23:46:09.455Z,97.28
2022-12-18T23:48:11.262Z,98.77
2022-12-18T23:50:12.819Z,98.47
2022-12-18T23:52:14.495Z,95.58
2022-12-18T23:54:16.301Z,94.99
2022-12-18T23:56:20.785Z,96.02
2022-12-18T23:58:22.328Z,95.23
